Terminal Aerodrome Forecast
Issued by NWS Paducah, KY

Home | Current Version | Previous Version | Text Only | Print | Product List | Glossary On
Versions: 1 2 3 4 5 6 7 8 9 10 11 12 13 14 15 16 17 18
000
FTUS43 KPAH 250520
TAFPAH
TAF
KPAH 250520Z 2506/2606 19011G18KT P6SM -SHRA SCT045
     FM250900 23007KT P6SM SCT250
     FM251900 15007KT P6SM SCT250
     FM260000 18012KT P6SM OVC025=

USA.gov is the U.S. government's official web portal to all federal, state and local government web resources and services.